• Join FlightAware (Why Join?)
  • Login
  • US Flag 
06:29AM EDT


 

Airport Tracker/Info


-or-


 

Live Flight TrackerFlight Track Log ✈ N9769H ✈ 25-Apr-2013 ✈ KSIV - KHAO

Flight Track Log - Related Links

Times and Time Zones

All times are in EDT time to prevent confusion due to time zone crossing. See the N9769H flight status page for this flight to view local times or setup timezone preferences in your user account.

Time Position Orientation Groundspeed Altitude Reporting Facility
EDT Latitude Longitude Course Direction KTS MPH feet Rate Location/Type
02:40PM 39.1667 -86.7833 83° East 148 170 5,400  Level Indianapolis TRACON
02:41PM 39.1833 -86.7333 67° East 151 174 5,400  Level Indianapolis TRACON
02:42PM 39.1833 -86.6667 90° East 153 176 5,500  Climbing Indianapolis TRACON
02:43PM 39.1833 -86.6167 90° East 149 171 5,400  Descending Indianapolis TRACON
02:44PM 39.2000 -86.5667 67° East 153 176 5,500  Climbing Indianapolis TRACON
02:45PM 39.2000 -86.5167 90° East 153 176 5,500 -60 Level Indianapolis TRACON
02:46PM 39.1458 -87.1267 83° East  Level Estimated
02:46PM 39.2000 -86.4667 90° East 152 175 5,400  Level Indianapolis TRACON
02:47PM 39.2167 -86.4000 72° East 153 176 5,500  Climbing Indianapolis TRACON
02:48PM 39.2167 -86.3500 90° East 146 168 5,500  Level Indianapolis TRACON
02:49PM 39.2167 -86.3167 90° East 146 168 5,500  Level Indianapolis TRACON
02:50PM 39.2333 -86.2500 72° East 147 169 5,600  Climbing Indianapolis TRACON
02:51PM 39.2333 -86.2000 90° East 153 176 5,600 -60 Level Indianapolis TRACON
02:52PM 39.2333 -86.1500 90° East 151 174 5,500 -60 Descending Indianapolis TRACON
02:53PM 39.2333 -86.1000 90° East 155 178 5,500 -60 Level Indianapolis TRACON
02:54PM 39.2333 -86.0500 90° East 154 177 5,400  Descending Indianapolis TRACON
02:55PM 39.2500 -85.9833 72° East 155 178 5,500  Climbing Indianapolis TRACON
02:56PM 39.2500 -85.9333 90° East 148 170 5,500  Level Indianapolis TRACON
02:57PM 39.2500 -85.8833 90° East 146 168 5,600  Climbing Indianapolis TRACON
02:58PM 39.2667 -85.8333 67° East 154 177 5,600 -60 Level Indianapolis TRACON
02:59PM 39.2667 -85.7667 90° East 163 188 5,500 -60 Descending Indianapolis TRACON
03:00PM 39.2667 -85.7167 90° East 158 182 5,500  Level Indianapolis TRACON
03:02PM 39.2833 -85.6167 78° East 157 181 5,500  Level Cincinnati TRACON
03:03PM 39.2833 -85.5500 90° East 155 178 5,500  Level Cincinnati TRACON
03:04PM 39.3000 -85.5000 67° East 155 178 5,500  Level Cincinnati TRACON
03:05PM 39.3000 -85.4500 90° East 158 182 5,600  Climbing Cincinnati TRACON
03:06PM 39.3000 -85.3833 90° East 162 186 5,600  Level Cincinnati TRACON
03:07PM 39.3167 -85.3333 67° East 159 183 5,600 -60 Level Cincinnati TRACON
03:08PM 39.3167 -85.2833 90° East 158 182 5,500 -180 Descending Cincinnati TRACON
03:09PM 39.3167 -85.2167 90° East 161 185 5,300 -360 Descending Cincinnati TRACON
03:10PM 39.3167 -85.1500 90° East 169 194 4,800 -600 Descending Cincinnati TRACON
03:11PM 39.3333 -85.1000 67° East 174 200 4,200 -660 Descending Cincinnati TRACON
03:12PM 39.3333 -85.0333 90° East 169 194 3,500 -420 Descending Cincinnati TRACON
03:13PM 39.3333 -84.9833 90° East 156 180 3,400  Descending Cincinnati TRACON
03:14PM 39.3333 -84.9167 90° East 148 170 3,500  Climbing Cincinnati TRACON
03:16PM 39.3335 -84.8303 85° East  Level FlightAware Approximate
03:16PM 39.3500 -84.8167 85° East 150 173 3,500  Level Cincinnati TRACON
03:17PM 39.3500 -84.7667 90° East 149 171 3,500  Level Cincinnati TRACON
03:19PM 39.3500 -84.6802 90° East  Level FlightAware Approximate
03:26PM 39.3500 -84.5167 90° East  Level FlightAware Approximate
03:27PM 39.3638 -84.5219 90° East  Level Estimated
03:28PM 39.3638 -84.5219 90° East  Level Estimated
03:29PM 39.3638 -84.5219 90° East  Level Estimated
03:30PM 39.3638 -84.5219 90° East  Level Estimated
03:31PM 39.3638 -84.5219 90° East  Level Estimated
03:32PM 39.3638 -84.5219 90° East  Level Estimated
03:33PM 39.3638 -84.5219 90° East  Level Estimated
03:34PM 39.3638 -84.5219 90° East  Level Estimated
03:35PM 39.3638 -84.5219 90° East  Level Estimated
03:36PM 39.3638 -84.5219 90° East  Level Estimated
03:37PM 39.3638 -84.5219 90° East  Level Estimated
03:38PM 39.3638 -84.5219 90° East  Level Estimated
03:39PM 39.3638 -84.5219 90° East  Level Estimated
03:40PM 39.3638 -84.5219 90° East  Level Estimated